createdAt,value
2018-03-07T00:00:04.027Z,22.43
2018-03-07T00:02:35.760Z,22.23
2018-03-07T00:05:03.306Z,24.73
2018-03-07T00:07:47.691Z,22.90
2018-03-07T00:10:16.528Z,22.00
2018-03-07T00:12:44.168Z,22.93
2018-03-07T00:15:11.689Z,24.47
2018-03-07T00:17:39.198Z,25.03
2018-03-07T00:20:07.486Z,23.37
2018-03-07T00:22:35.098Z,22.80
2018-03-07T00:25:03.341Z,23.50
2018-03-07T00:27:32.065Z,24.37
2018-03-07T00:30:05.214Z,22.57
2018-03-07T00:33:02.258Z,23.47
2018-03-07T00:35:33.457Z,23.50
2018-03-07T00:38:07.419Z,22.50
2018-03-07T00:40:35.050Z,24.77
2018-03-07T00:43:06.679Z,24.87
2018-03-07T00:45:34.206Z,26.13
2018-03-07T00:48:04.670Z,24.30
2018-03-07T00:50:33.756Z,25.37
2018-03-07T00:53:29.959Z,25.23
2018-03-07T00:56:01.574Z,24.43
2018-03-07T00:58:31.446Z,25.37
2018-03-07T01:01:01.421Z,24.37
2018-03-07T01:03:31.365Z,24.40
2018-03-07T01:06:02.431Z,25.47
2018-03-07T01:08:31.575Z,24.73
2018-03-07T01:11:02.487Z,24.30
2018-03-07T01:13:31.950Z,24.90
2018-03-07T01:16:02.645Z,24.23
2018-03-07T01:18:32.665Z,24.47
2018-03-07T01:21:01.549Z,21.90
2018-03-07T01:23:32.394Z,24.27
2018-03-07T01:26:06.255Z,25.63
2018-03-07T01:28:34.042Z,25.43
2018-03-07T01:31:07.086Z,23.93
2018-03-07T01:33:34.596Z,25.53
2018-03-07T01:36:03.823Z,25.00
2018-03-07T01:38:33.841Z,24.60
2018-03-07T01:41:04.106Z,26.40
2018-03-07T01:43:34.066Z,26.30
2018-03-07T01:46:05.173Z,25.47
2018-03-07T01:48:33.190Z,25.67
2018-03-07T01:51:03.182Z,25.40
2018-03-07T01:53:33.295Z,26.60
2018-03-07T01:56:04.707Z,25.33
2018-03-07T01:58:33.458Z,24.70
2018-03-07T02:01:03.135Z,23.50
2018-03-07T02:03:32.803Z,25.03
2018-03-07T02:06:02.879Z,25.20
2018-03-07T02:08:32.323Z,23.70
2018-03-07T02:11:11.905Z,23.57
2018-03-07T02:13:39.438Z,25.53
2018-03-07T02:16:07.830Z,24.77
2018-03-07T02:18:37.386Z,23.07
2018-03-07T02:21:04.911Z,23.70
2018-03-07T02:23:37.852Z,22.77
2018-03-07T02:26:05.370Z,23.57
2018-03-07T02:28:35.450Z,22.90
2018-03-07T02:31:03.236Z,21.67
2018-03-07T02:33:32.614Z,23.50
2018-03-07T02:36:15.557Z,24.10
2018-03-07T02:38:43.066Z,22.33
2018-03-07T02:41:11.359Z,24.23
2018-03-07T02:43:39.649Z,26.03
2018-03-07T02:46:07.939Z,24.90
2018-03-07T02:48:36.642Z,23.57
2018-03-07T02:51:04.181Z,24.67
2018-03-07T02:53:33.546Z,24.87
2018-03-07T02:56:01.690Z,25.40
2018-03-07T02:58:41.709Z,24.33
2018-03-07T03:01:09.234Z,26.43
2018-03-07T03:03:36.733Z,24.93
2018-03-07T03:06:04.263Z,23.10
2018-03-07T03:08:33.378Z,24.47
2018-03-07T03:11:03.306Z,26.13
2018-03-07T03:13:33.122Z,25.60
2018-03-07T03:16:03.156Z,24.40
2018-03-07T03:18:33.602Z,23.27
2018-03-07T03:21:02.073Z,22.10
2018-03-07T03:23:40.714Z,22.90
2018-03-07T03:26:08.253Z,22.53
2018-03-07T03:28:36.523Z,23.20
2018-03-07T03:31:04.822Z,22.43
2018-03-07T03:33:33.733Z,22.93
2018-03-07T03:36:02.787Z,21.43
2018-03-07T03:38:40.958Z,24.50
2018-03-07T03:41:09.551Z,22.83
2018-03-07T03:43:37.171Z,22.50
2018-03-07T03:46:08.866Z,23.97
2018-03-07T03:48:36.493Z,21.63
2018-03-07T03:51:03.995Z,22.70
2018-03-07T03:53:32.870Z,22.30
2018-03-07T03:56:02.864Z,25.43
2018-03-07T03:58:32.849Z,21.90
2018-03-07T04:01:12.121Z,23.37
2018-03-07T04:03:40.404Z,24.77
2018-03-07T04:06:08.673Z,23.90
2018-03-07T04:08:36.195Z,25.33
2018-03-07T04:13:36.597Z,23.53
2018-03-07T04:16:04.147Z,24.63
2018-03-07T04:18:35.723Z,23.77
2018-03-07T04:21:04.189Z,25.63
2018-03-07T04:23:32.536Z,26.00
2018-03-07T04:26:03.078Z,28.23
2018-03-07T04:28:31.845Z,26.83
2018-03-07T04:31:02.164Z,28.97
2018-03-07T04:33:35.532Z,27.00
2018-03-07T04:36:08.928Z,28.03
2018-03-07T04:38:40.074Z,28.03
2018-03-07T04:41:07.574Z,28.63
2018-03-07T04:43:35.102Z,28.73
2018-03-07T04:46:04.124Z,27.00
2018-03-07T04:48:34.179Z,29.33
2018-03-07T04:51:04.969Z,27.07
2018-03-07T04:53:33.661Z,27.10
2018-03-07T04:56:04.206Z,27.73
2018-03-07T04:58:34.254Z,28.23
2018-03-07T05:01:04.789Z,28.30
2018-03-07T05:03:35.286Z,27.60
2018-03-07T05:06:03.966Z,28.37
2018-03-07T05:08:34.666Z,30.13
2018-03-07T05:11:05.234Z,28.50
2018-03-07T05:13:35.310Z,29.73
2018-03-07T05:16:04.991Z,28.70
2018-03-07T05:18:34.810Z,26.93
2018-03-07T05:21:04.787Z,30.10
2018-03-07T05:23:34.823Z,30.43
2018-03-07T05:26:13.343Z,27.80
2018-03-07T05:28:41.008Z,27.50
2018-03-07T05:31:08.550Z,27.23
2018-03-07T05:33:36.057Z,28.00
2018-03-07T05:36:04.261Z,27.63
2018-03-07T05:38:33.330Z,27.37
2018-03-07T05:41:04.605Z,28.00
2018-03-07T05:43:34.943Z,25.83
2018-03-07T05:46:14.636Z,26.10
2018-03-07T05:48:42.154Z,25.60
2018-03-07T05:51:09.662Z,26.77
2018-03-07T05:53:37.187Z,24.87
2018-03-07T05:56:06.515Z,27.40
2018-03-07T05:58:35.262Z,25.73
2018-03-07T06:01:14.826Z,27.23
2018-03-07T06:03:42.362Z,25.37
2018-03-07T06:06:10.663Z,25.67
2018-03-07T06:08:38.225Z,24.47
2018-03-07T06:11:06.489Z,24.80
2018-03-07T06:13:34.935Z,22.90
2018-03-07T06:16:04.418Z,22.67
2018-03-07T06:18:34.942Z,22.90
2018-03-07T06:21:04.508Z,22.43
2018-03-07T06:23:36.023Z,22.00
2018-03-07T06:26:10.668Z,22.53
2018-03-07T06:28:40.723Z,22.30
2018-03-07T06:31:12.918Z,21.67
2018-03-07T06:33:53.450Z,20.90
2018-03-07T06:36:20.956Z,21.83
2018-03-07T06:38:49.263Z,22.07
2018-03-07T06:41:16.767Z,20.60
2018-03-07T06:43:44.298Z,19.13
2018-03-07T06:46:16.581Z,20.20
2018-03-07T06:48:44.480Z,19.60
2018-03-07T06:51:23.761Z,19.20
2018-03-07T06:53:51.265Z,17.57
2018-03-07T06:56:19.562Z,18.63
2018-03-07T06:58:47.838Z,18.33
2018-03-07T07:01:16.134Z,19.03
2018-03-07T07:03:44.415Z,18.40
2018-03-07T07:06:23.842Z,19.53
2018-03-07T07:08:51.374Z,20.10
2018-03-07T07:11:18.935Z,19.20
2018-03-07T07:13:47.207Z,20.53
2018-03-07T07:16:14.722Z,19.53
2018-03-07T07:18:44.007Z,17.97
2018-03-07T07:21:13.943Z,18.37
2018-03-07T07:23:41.447Z,17.70
2018-03-07T07:26:08.970Z,18.03
2018-03-07T07:28:37.234Z,17.40
2018-03-07T07:31:04.775Z,17.63
2018-03-07T07:33:33.586Z,16.40
2018-03-07T07:36:01.930Z,17.40
2018-03-07T07:38:33.398Z,16.10
2018-03-07T07:41:03.226Z,15.83
2018-03-07T07:43:30.963Z,15.43
2018-03-07T07:46:08.934Z,16.37
2018-03-07T07:48:36.433Z,15.10
2018-03-07T07:51:03.959Z,16.30
2018-03-07T07:53:32.101Z,16.27
2018-03-07T07:56:02.611Z,16.23
2018-03-07T07:58:31.848Z,16.57
2018-03-07T08:01:01.239Z,14.57
2018-03-07T08:03:29.168Z,16.10
2018-03-07T08:05:59.190Z,15.80
2018-03-07T08:08:29.005Z,16.10
2018-03-07T08:10:58.484Z,14.83
2018-03-07T08:13:26.570Z,14.50
2018-03-07T08:15:54.619Z,15.50
2018-03-07T08:18:23.904Z,14.73
2018-03-07T08:20:51.491Z,14.57
2018-03-07T08:23:19.794Z,14.93
2018-03-07T08:25:48.093Z,14.53
2018-03-07T08:28:16.725Z,14.40
2018-03-07T08:30:44.318Z,13.63
2018-03-07T08:33:11.830Z,14.50
2018-03-07T08:35:39.384Z,13.50
2018-03-07T08:38:06.881Z,14.70
2018-03-07T08:40:35.273Z,15.40
2018-03-07T08:43:03.679Z,17.03
2018-03-07T08:45:31.874Z,16.73
2018-03-07T08:47:59.790Z,16.37
2018-03-07T08:50:27.415Z,15.73
2018-03-07T08:52:55.003Z,16.40
2018-03-07T08:55:22.982Z,16.07
2018-03-07T08:58:02.839Z,15.83
2018-03-07T09:00:30.404Z,18.23
2018-03-07T09:02:57.919Z,15.30
2018-03-07T09:05:26.215Z,15.90
2018-03-07T09:07:53.781Z,18.40
2018-03-07T09:10:22.129Z,17.20
2018-03-07T09:12:49.924Z,16.97
2018-03-07T09:15:18.843Z,17.60
2018-03-07T09:17:47.399Z,19.40
2018-03-07T09:20:14.929Z,19.40
2018-03-07T09:22:42.538Z,19.83
2018-03-07T09:25:10.970Z,18.10
2018-03-07T09:27:38.921Z,19.17
2018-03-07T09:30:06.486Z,19.03
2018-03-07T09:32:34.025Z,19.30
2018-03-07T09:35:01.665Z,17.40
2018-03-07T09:37:29.321Z,16.60
2018-03-07T09:39:56.921Z,15.27
2018-03-07T09:42:24.554Z,16.07
2018-03-07T09:44:52.190Z,16.47
2018-03-07T09:47:20.222Z,16.27
2018-03-07T09:49:48.344Z,17.27
2018-03-07T09:52:15.946Z,15.93
2018-03-07T09:54:44.231Z,15.50
2018-03-07T09:57:11.825Z,17.50
2018-03-07T09:59:40.385Z,19.37
2018-03-07T10:02:07.927Z,19.20
2018-03-07T10:04:35.471Z,17.97
2018-03-07T10:07:03.968Z,19.13
2018-03-07T10:09:31.537Z,19.43
2018-03-07T10:11:59.818Z,18.47
2018-03-07T10:14:28.925Z,19.37
2018-03-07T10:16:57.212Z,18.60
2018-03-07T10:19:25.688Z,20.80
2018-03-07T10:21:53.300Z,19.77
2018-03-07T10:24:21.911Z,18.97
2018-03-07T10:26:50.209Z,19.63
2018-03-07T10:29:21.449Z,17.60
2018-03-07T10:31:50.250Z,21.70
2018-03-07T10:34:19.926Z,18.80
2018-03-07T10:36:52.916Z,19.90
2018-03-07T10:39:22.225Z,20.73
2018-03-07T10:41:52.620Z,20.20
2018-03-07T10:44:21.968Z,21.87
2018-03-07T10:46:53.304Z,20.83
2018-03-07T10:49:23.006Z,21.50
2018-03-07T10:51:54.183Z,18.97
2018-03-07T10:54:24.875Z,20.87
2018-03-07T10:56:55.087Z,20.30
2018-03-07T10:59:35.478Z,20.70
2018-03-07T11:02:03.013Z,21.10
2018-03-07T11:04:30.517Z,20.20
2018-03-07T11:06:59.083Z,21.77
2018-03-07T11:09:27.445Z,24.30
2018-03-07T11:11:57.985Z,21.77
2018-03-07T11:14:26.760Z,20.57
2018-03-07T11:16:56.863Z,21.70
2018-03-07T11:19:27.955Z,21.93
2018-03-07T11:22:06.498Z,21.27
2018-03-07T11:24:34.779Z,23.70
2018-03-07T11:27:03.082Z,22.60
2018-03-07T11:29:31.371Z,20.97
2018-03-07T11:31:59.635Z,22.87
2018-03-07T11:34:28.344Z,21.40
2018-03-07T11:36:58.099Z,17.20
2018-03-07T11:39:28.158Z,17.40
2018-03-07T11:41:56.562Z,16.30
2018-03-07T11:44:27.140Z,18.73
2018-03-07T11:46:55.842Z,19.20
2018-03-07T11:49:27.961Z,16.37
2018-03-07T11:51:58.530Z,17.60
2018-03-07T11:54:28.235Z,20.40
2018-03-07T11:56:57.939Z,18.43
2018-03-07T11:59:38.454Z,18.70
2018-03-07T12:02:05.960Z,18.17
2018-03-07T12:04:34.248Z,19.70
2018-03-07T12:07:02.567Z,17.90
2018-03-07T12:09:30.082Z,16.63
2018-03-07T12:11:58.826Z,20.37
2018-03-07T12:14:31.334Z,17.50
2018-03-07T12:16:59.498Z,18.10
2018-03-07T12:19:29.297Z,17.50
2018-03-07T12:21:58.390Z,16.43
2018-03-07T12:24:28.066Z,17.70
2018-03-07T12:26:58.843Z,16.90
2018-03-07T12:29:28.227Z,18.20
2018-03-07T12:31:58.842Z,17.00
2018-03-07T12:34:28.813Z,18.07
2018-03-07T12:37:03.324Z,17.27
2018-03-07T12:39:30.858Z,19.33
2018-03-07T12:41:58.990Z,19.47
2018-03-07T12:44:29.088Z,19.60
2018-03-07T12:46:59.849Z,18.77
2018-03-07T12:49:30.002Z,19.23
2018-03-07T12:52:00.218Z,18.00
2018-03-07T12:54:30.202Z,17.40
2018-03-07T12:57:03.350Z,16.80
2018-03-07T12:59:30.957Z,17.90
2018-03-07T13:02:00.111Z,15.67
2018-03-07T13:04:29.003Z,17.73
2018-03-07T13:06:58.870Z,17.57
2018-03-07T13:09:39.646Z,20.63
2018-03-07T13:12:07.156Z,20.90
2018-03-07T13:14:34.722Z,20.77
2018-03-07T13:17:02.238Z,18.87
2018-03-07T13:19:31.151Z,18.97
2018-03-07T13:22:00.296Z,22.00
2018-03-07T13:24:28.450Z,20.50
2018-03-07T13:27:07.885Z,19.53
2018-03-07T13:29:35.529Z,20.13
2018-03-07T13:32:03.092Z,19.20
2018-03-07T13:34:39.244Z,20.23
2018-03-07T13:37:07.062Z,21.63
2018-03-07T13:39:35.362Z,21.50
2018-03-07T13:42:02.871Z,20.93
2018-03-07T13:44:31.531Z,20.17
2018-03-07T13:47:04.955Z,20.77
2018-03-07T13:49:37.046Z,21.70
2018-03-07T13:52:06.539Z,20.50
2018-03-07T13:54:34.932Z,19.27
2018-03-07T13:57:09.322Z,19.20
2018-03-07T13:59:36.854Z,17.93
2018-03-07T14:02:05.146Z,16.10
2018-03-07T14:04:33.438Z,15.00
2018-03-07T14:07:01.707Z,15.80
2018-03-07T14:09:36.703Z,15.03
2018-03-07T14:12:04.263Z,13.33
2018-03-07T14:14:32.570Z,14.97
2018-03-07T14:17:08.230Z,15.10
2018-03-07T14:19:36.523Z,11.33
2018-03-07T14:22:04.794Z,10.63
2018-03-07T14:24:37.823Z,8.63
2018-03-07T14:27:09.490Z,8.50
2018-03-07T14:29:37.078Z,6.87
2018-03-07T14:32:04.593Z,6.80
2018-03-07T14:34:32.130Z,7.70
2018-03-07T14:37:00.975Z,7.30
2018-03-07T14:39:30.074Z,7.13
2018-03-07T14:42:05.501Z,7.07
2018-03-07T14:44:37.589Z,6.47
2018-03-07T14:47:06.262Z,6.50
2018-03-07T14:49:39.790Z,5.67
2018-03-07T14:52:07.322Z,6.10
2018-03-07T14:54:42.138Z,5.87
2018-03-07T14:57:09.646Z,5.40
2018-03-07T14:59:37.982Z,5.97
2018-03-07T15:02:11.911Z,5.27
2018-03-07T15:04:40.174Z,5.20
2018-03-07T15:07:08.419Z,5.30
2018-03-07T15:09:36.690Z,5.40
2018-03-07T15:12:11.906Z,5.50
2018-03-07T15:14:39.399Z,5.07
2018-03-07T15:17:06.911Z,5.00
2018-03-07T15:19:35.187Z,5.20
2018-03-07T15:22:03.472Z,5.70
2018-03-07T15:24:30.968Z,4.77
2018-03-07T15:27:01.423Z,4.70
2018-03-07T15:29:34.355Z,4.50
2018-03-07T15:32:02.622Z,4.10
2018-03-07T15:34:31.627Z,5.17
2018-03-07T15:37:02.686Z,5.20
2018-03-07T15:39:31.351Z,4.80
2018-03-07T15:42:00.737Z,4.73
2018-03-07T15:44:31.618Z,4.17
2018-03-07T15:47:01.518Z,3.40
2018-03-07T15:49:30.524Z,4.37
2018-03-07T15:52:01.790Z,4.87
2018-03-07T15:54:31.865Z,4.90
2018-03-07T15:57:03.238Z,4.97
2018-03-07T15:59:31.714Z,5.37
2018-03-07T16:02:22.680Z,6.10
2018-03-07T16:04:59.542Z,5.10
2018-03-07T16:07:30.398Z,5.40
2018-03-07T16:09:59.734Z,5.27
2018-03-07T16:12:35.130Z,6.00
2018-03-07T16:15:03.370Z,6.17
2018-03-07T16:17:31.766Z,5.70
2018-03-07T16:20:01.982Z,4.80
2018-03-07T16:22:30.151Z,5.50
2018-03-07T16:25:00.495Z,5.20
2018-03-07T16:27:38.683Z,4.70
2018-03-07T16:30:06.255Z,5.03
2018-03-07T16:32:33.779Z,4.80
2018-03-07T16:35:01.278Z,4.30
2018-03-07T16:37:30.714Z,4.40
2018-03-07T16:40:03.052Z,6.10
2018-03-07T16:42:32.174Z,4.40
2018-03-07T16:45:00.439Z,4.40
2018-03-07T16:47:32.410Z,4.27
2018-03-07T16:49:59.910Z,3.90
2018-03-07T16:52:29.817Z,3.90
2018-03-07T16:54:58.818Z,3.90
2018-03-07T16:57:28.710Z,4.50
2018-03-07T17:00:00.204Z,4.30
2018-03-07T17:02:43.662Z,4.13
2018-03-07T17:05:11.210Z,5.30
2018-03-07T17:07:38.730Z,4.30
2018-03-07T17:10:10.864Z,4.07
2018-03-07T17:12:48.648Z,3.80
2018-03-07T17:15:19.794Z,4.13
2018-03-07T17:17:49.612Z,4.23
2018-03-07T17:20:20.686Z,4.30
2018-03-07T17:22:48.207Z,3.93
2018-03-07T17:25:15.705Z,3.53
2018-03-07T17:27:43.998Z,3.37
2018-03-07T17:30:16.074Z,3.07
2018-03-07T17:32:49.023Z,3.50
2018-03-07T17:35:19.119Z,2.90
2018-03-07T17:37:49.766Z,2.90
2018-03-07T17:40:19.610Z,3.13
2018-03-07T17:42:49.102Z,2.67
2018-03-07T17:45:18.971Z,2.57
2018-03-07T17:47:49.249Z,2.70
2018-03-07T17:50:27.654Z,2.83
2018-03-07T17:52:55.171Z,2.43
2018-03-07T17:55:22.734Z,2.70
2018-03-07T17:57:50.252Z,3.10
2018-03-07T18:00:19.335Z,2.63
2018-03-07T18:02:47.670Z,2.93
2018-03-07T18:05:18.341Z,2.87
2018-03-07T18:07:58.071Z,3.23
2018-03-07T18:10:25.574Z,3.23
2018-03-07T18:12:53.879Z,3.70
2018-03-07T18:15:21.389Z,3.00
2018-03-07T18:17:49.242Z,3.50
2018-03-07T18:20:17.378Z,3.00
2018-03-07T18:22:46.972Z,3.90
2018-03-07T18:25:16.781Z,3.40
2018-03-07T18:27:46.259Z,3.13
2018-03-07T18:30:16.098Z,3.17
2018-03-07T18:32:46.779Z,3.40
2018-03-07T18:35:17.837Z,3.53
2018-03-07T18:37:48.431Z,3.60
2018-03-07T18:40:17.650Z,4.27
2018-03-07T18:42:48.926Z,3.63
2018-03-07T18:45:20.315Z,3.60
2018-03-07T18:47:50.313Z,3.43
2018-03-07T18:50:19.875Z,4.27
2018-03-07T18:52:58.266Z,4.70
2018-03-07T18:55:26.536Z,4.20
2018-03-07T18:57:54.133Z,4.33
2018-03-07T19:00:25.003Z,5.10
2018-03-07T19:02:54.710Z,4.70
2018-03-07T19:05:22.990Z,4.70
2018-03-07T19:07:55.890Z,5.00
2018-03-07T19:10:24.178Z,4.90
2018-03-07T19:12:52.438Z,5.93
2018-03-07T19:15:20.188Z,6.10
2018-03-07T19:17:49.386Z,5.40
2018-03-07T19:20:21.742Z,7.07
2018-03-07T19:22:50.197Z,6.07
2018-03-07T19:25:18.038Z,6.13
2018-03-07T19:27:45.570Z,6.20
2018-03-07T19:30:14.330Z,6.30
2018-03-07T19:32:46.265Z,6.40
2018-03-07T19:35:18.789Z,6.27
2018-03-07T19:37:48.191Z,7.83
2018-03-07T19:40:17.983Z,8.80
2018-03-07T19:42:48.829Z,9.43
2018-03-07T19:45:22.821Z,10.00
2018-03-07T19:47:51.558Z,11.10
2018-03-07T19:50:20.322Z,11.50
2018-03-07T19:52:50.129Z,13.20
2018-03-07T19:55:20.111Z,13.13
2018-03-07T19:57:50.106Z,13.63
2018-03-07T20:00:20.127Z,14.50
2018-03-07T20:02:50.334Z,15.03
2018-03-07T20:05:20.330Z,16.40
2018-03-07T20:07:51.119Z,15.77
2018-03-07T20:10:19.470Z,17.30
2018-03-07T20:12:50.545Z,18.60
2018-03-07T20:15:21.342Z,19.77
2018-03-07T20:17:50.329Z,20.60
2018-03-07T20:20:21.001Z,22.13
2018-03-07T20:22:49.550Z,21.43
2018-03-07T20:25:23.131Z,22.40
2018-03-07T20:27:51.771Z,23.60
2018-03-07T20:30:20.461Z,24.83
2018-03-07T20:32:51.460Z,26.77
2018-03-07T20:35:20.349Z,29.13
2018-03-07T20:37:50.153Z,27.90
2018-03-07T20:40:21.530Z,28.67
2018-03-07T20:42:50.495Z,28.77
2018-03-07T20:45:20.570Z,28.40
2018-03-07T20:47:51.318Z,26.90
2018-03-07T20:50:31.037Z,22.07
2018-03-07T20:53:00.092Z,19.47
2018-03-07T20:55:27.642Z,18.30
2018-03-07T20:57:55.170Z,18.40
2018-03-07T21:00:22.688Z,16.73
2018-03-07T21:02:51.444Z,15.63
2018-03-07T21:05:21.260Z,14.00
2018-03-07T21:07:50.260Z,13.50
2018-03-07T21:10:20.214Z,13.20
2018-03-07T21:12:51.246Z,11.83
2018-03-07T21:15:20.278Z,11.03
2018-03-07T21:17:50.066Z,11.63
2018-03-07T21:20:20.482Z,11.57
2018-03-07T21:22:50.426Z,10.80
2018-03-07T21:25:21.514Z,10.30
2018-03-07T21:27:50.458Z,10.70
2018-03-07T21:30:19.555Z,12.73
2018-03-07T21:32:50.546Z,12.87
2018-03-07T21:35:20.643Z,13.33
2018-03-07T21:37:51.302Z,15.63
2018-03-07T21:40:30.599Z,15.43
2018-03-07T21:42:58.114Z,15.60
2018-03-07T21:45:26.409Z,19.20
2018-03-07T21:47:54.697Z,18.73
2018-03-07T21:50:23.000Z,16.13
2018-03-07T21:52:50.650Z,18.63
2018-03-07T21:55:29.646Z,21.40
2018-03-07T21:57:57.283Z,22.00
2018-03-07T22:00:25.555Z,21.53
2018-03-07T22:02:53.082Z,22.83
2018-03-07T22:05:21.562Z,25.80
2018-03-07T22:07:50.773Z,27.40
2018-03-07T22:10:20.238Z,28.27
2018-03-07T22:12:50.006Z,27.37
2018-03-07T22:15:29.666Z,27.30
2018-03-07T22:17:57.958Z,28.53
2018-03-07T22:20:26.230Z,31.93
2018-03-07T22:22:54.328Z,29.10
2018-03-07T22:25:22.602Z,29.43
2018-03-07T22:27:50.654Z,29.93
2018-03-07T22:30:19.771Z,29.80
2018-03-07T22:32:49.735Z,29.40
2018-03-07T22:35:19.811Z,28.77
2018-03-07T22:37:59.663Z,30.17
2018-03-07T22:40:27.219Z,28.10
2018-03-07T22:42:54.747Z,29.30
2018-03-07T22:45:22.338Z,31.00
2018-03-07T22:47:50.427Z,29.70
2018-03-07T22:50:20.321Z,31.80
2018-03-07T22:52:58.775Z,30.93
2018-03-07T22:55:26.296Z,32.70
2018-03-07T22:57:53.841Z,31.27
2018-03-07T23:00:27.971Z,32.07
2018-03-07T23:02:56.263Z,33.17
2018-03-07T23:05:23.826Z,34.47
2018-03-07T23:07:52.106Z,33.13
2018-03-07T23:10:19.798Z,33.93
2018-03-07T23:12:48.713Z,34.00
2018-03-07T23:15:17.975Z,32.80
2018-03-07T23:17:46.440Z,36.00
2018-03-07T23:20:15.242Z,35.80
2018-03-07T23:22:45.398Z,36.47
2018-03-07T23:25:15.227Z,33.50
2018-03-07T23:27:44.985Z,38.47
2018-03-07T23:30:14.566Z,39.70
2018-03-07T23:32:45.510Z,39.60
2018-03-07T23:35:16.311Z,37.40
2018-03-07T23:37:56.318Z,38.80
2018-03-07T23:40:23.843Z,39.30
2018-03-07T23:42:52.134Z,36.73
2018-03-07T23:45:19.846Z,38.70
2018-03-07T23:47:48.886Z,39.57
2018-03-07T23:50:18.086Z,37.70
2018-03-07T23:52:49.245Z,34.20
2018-03-07T23:55:19.346Z,35.03
2018-03-07T23:57:49.243Z,33.73
